createdAt,value
2022-11-28T00:00:22.690Z,54.17
2022-11-28T00:03:25.092Z,54.63
2022-11-28T00:06:27.582Z,58.40
2022-11-28T00:09:29.543Z,63.97
2022-11-28T00:12:31.125Z,53.25
2022-11-28T00:15:32.887Z,60.50
2022-11-28T00:18:35.027Z,56.10
2022-11-28T00:21:36.946Z,53.33
2022-11-28T00:24:40.536Z,52.88
2022-11-28T00:27:42.303Z,47.00
2022-11-28T00:30:43.844Z,53.65
2022-11-28T00:33:45.854Z,56.60
2022-11-28T00:36:47.875Z,47.25
2022-11-28T00:39:49.438Z,57.55
2022-11-28T00:42:50.993Z,82.28
2022-11-28T00:45:52.579Z,59.20
2022-11-28T00:48:54.292Z,56.97
2022-11-28T00:51:55.879Z,55.38
2022-11-28T00:54:57.436Z,45.20
2022-11-28T00:57:59.075Z,51.42
2022-11-28T01:01:01.237Z,55.05
2022-11-28T01:04:07.238Z,49.85
2022-11-28T01:07:08.783Z,55.12
2022-11-28T01:10:11.816Z,52.22
2022-11-28T01:13:13.429Z,50.65
2022-11-28T01:16:15.499Z,55.88
2022-11-28T01:19:17.478Z,49.72
2022-11-28T01:22:19.036Z,50.38
2022-11-28T01:25:20.839Z,49.08
2022-11-28T01:28:22.688Z,40.72
2022-11-28T01:31:26.648Z,38.92
2022-11-28T01:34:28.244Z,46.35
2022-11-28T01:37:30.346Z,39.83
2022-11-28T01:40:32.402Z,40.42
2022-11-28T01:43:35.327Z,44.15
2022-11-28T01:46:37.226Z,45.60
2022-11-28T01:49:39.320Z,43.28
2022-11-28T01:52:45.480Z,38.55
2022-11-28T01:55:54.436Z,43.25
2022-11-28T01:59:02.473Z,45.95
2022-11-28T02:02:07.587Z,38.65
2022-11-28T02:05:09.485Z,53.03
2022-11-28T02:08:11.087Z,43.25
2022-11-28T02:11:30.115Z,44.72
2022-11-28T02:14:44.592Z,38.30
2022-11-28T02:18:13.349Z,35.60
2022-11-28T02:21:38.737Z,38.55
2022-11-28T02:25:01.966Z,39.63
2022-11-28T02:28:15.591Z,39.45
2022-11-28T02:31:26.085Z,43.42
2022-11-28T02:34:33.859Z,43.80
2022-11-28T02:37:49.098Z,39.45
2022-11-28T02:41:14.196Z,37.75
2022-11-28T02:44:24.112Z,41.35
2022-11-28T02:47:41.044Z,43.40
2022-11-28T02:51:26.097Z,46.70
2022-11-28T02:54:28.988Z,43.72
2022-11-28T02:57:38.715Z,51.53
2022-11-28T03:00:45.479Z,48.63
2022-11-28T03:04:11.847Z,51.60
2022-11-28T03:07:35.170Z,45.97
2022-11-28T03:10:50.815Z,37.72
2022-11-28T03:14:09.141Z,45.90
2022-11-28T03:17:24.903Z,52.95
2022-11-28T03:20:38.412Z,49.55
2022-11-28T03:23:48.880Z,52.70
2022-11-28T03:27:32.073Z,44.08
2022-11-28T03:30:48.376Z,52.20
2022-11-28T03:33:57.192Z,51.45
2022-11-28T03:37:08.674Z,57.22
2022-11-28T03:40:15.267Z,50.05
2022-11-28T03:43:21.953Z,55.07
2022-11-28T03:46:34.834Z,54.03
2022-11-28T03:49:42.543Z,53.63
2022-11-28T03:52:54.246Z,44.20
2022-11-28T03:56:14.232Z,44.50
2022-11-28T03:59:18.453Z,40.20
2022-11-28T04:02:38.893Z,41.22
2022-11-28T04:05:52.926Z,35.92
2022-11-28T04:09:14.624Z,49.38
2022-11-28T04:12:48.060Z,34.95
2022-11-28T04:16:08.096Z,47.38
2022-11-28T04:19:41.967Z,46.80
2022-11-28T04:22:51.410Z,50.83
2022-11-28T04:25:58.110Z,55.78
2022-11-28T04:29:03.658Z,55.63
2022-11-28T04:32:08.115Z,61.10
2022-11-28T04:35:14.646Z,65.82
2022-11-28T04:38:17.428Z,61.20
2022-11-28T04:41:23.499Z,63.35
2022-11-28T04:44:31.284Z,57.53
2022-11-28T04:47:32.917Z,61.30
2022-11-28T04:51:15.400Z,68.82
2022-11-28T04:54:40.456Z,64.57
2022-11-28T04:57:57.345Z,61.53
2022-11-28T05:01:01.818Z,65.57
2022-11-28T05:04:03.729Z,64.43
2022-11-28T05:07:08.007Z,54.97
2022-11-28T05:10:11.845Z,54.47
2022-11-28T05:13:13.859Z,66.97
2022-11-28T05:16:16.548Z,55.05
2022-11-28T05:19:18.481Z,58.22
2022-11-28T05:22:20.152Z,59.85
2022-11-28T05:25:21.961Z,62.00
2022-11-28T05:28:23.553Z,60.12
2022-11-28T05:31:25.283Z,50.90
2022-11-28T05:34:26.931Z,64.87
2022-11-28T05:37:28.605Z,57.97
2022-11-28T05:40:30.182Z,57.03
2022-11-28T05:43:31.835Z,53.78
2022-11-28T05:46:33.485Z,55.12
2022-11-28T05:49:35.211Z,48.95
2022-11-28T05:52:36.757Z,48.13
2022-11-28T05:55:39.931Z,47.10
2022-11-28T05:58:42.185Z,53.87
2022-11-28T06:01:44.000Z,47.60
2022-11-28T06:04:45.609Z,47.40
2022-11-28T06:07:47.361Z,49.65
2022-11-28T06:10:57.114Z,47.90
2022-11-28T06:13:59.047Z,47.53
2022-11-28T06:17:00.672Z,48.85
2022-11-28T06:20:02.327Z,46.92
2022-11-28T06:23:03.899Z,52.58
2022-11-28T06:26:08.162Z,61.10
2022-11-28T06:29:09.725Z,53.80
2022-11-28T06:32:11.360Z,59.67
2022-11-28T06:35:12.958Z,42.67
2022-11-28T06:38:14.659Z,51.22
2022-11-28T06:41:19.159Z,47.60
2022-11-28T06:44:20.703Z,48.42
2022-11-28T06:47:22.437Z,51.33
2022-11-28T06:50:24.035Z,42.58
2022-11-28T06:53:31.257Z,44.97
2022-11-28T06:56:33.092Z,39.15
2022-11-28T06:59:34.717Z,36.75
2022-11-28T07:02:36.361Z,43.10
2022-11-28T07:05:38.248Z,42.80
2022-11-28T07:08:40.303Z,48.03
2022-11-28T07:11:42.670Z,44.83
2022-11-28T07:14:44.254Z,40.50
2022-11-28T07:17:45.852Z,39.05
2022-11-28T07:20:47.424Z,39.90
2022-11-28T07:23:48.991Z,38.38
2022-11-28T07:26:50.555Z,35.58
2022-11-28T07:29:52.120Z,37.03
2022-11-28T07:32:53.679Z,30.50
2022-11-28T07:35:55.434Z,33.58
2022-11-28T07:38:59.526Z,27.50
2022-11-28T07:42:01.088Z,30.48
2022-11-28T07:45:03.007Z,31.77
2022-11-28T07:48:04.611Z,39.03
2022-11-28T07:51:12.385Z,26.48
2022-11-28T07:54:13.947Z,27.60
2022-11-28T07:57:15.632Z,36.70
2022-11-28T08:00:18.001Z,25.02
2022-11-28T08:03:19.644Z,27.80
2022-11-28T08:06:24.447Z,32.00
2022-11-28T08:09:26.039Z,34.90
2022-11-28T08:12:27.579Z,27.90
2022-11-28T08:15:31.728Z,26.33
2022-11-28T08:18:36.419Z,31.73
2022-11-28T08:21:38.801Z,27.58
2022-11-28T08:24:40.793Z,27.48
2022-11-28T08:27:42.592Z,26.98
2022-11-28T08:30:44.210Z,34.95
2022-11-28T08:33:48.062Z,30.02
2022-11-28T08:36:50.239Z,29.80
2022-11-28T08:39:51.818Z,30.42
2022-11-28T08:42:53.378Z,32.42
2022-11-28T08:45:55.188Z,31.48
2022-11-28T08:48:56.775Z,30.65
2022-11-28T08:51:58.721Z,33.03
2022-11-28T08:55:00.312Z,33.83
2022-11-28T08:58:01.851Z,36.30
2022-11-28T09:01:04.127Z,37.92
2022-11-28T09:04:05.732Z,38.67
2022-11-28T09:07:07.344Z,40.05
2022-11-28T09:10:09.305Z,41.75
2022-11-28T09:13:12.865Z,40.58
2022-11-28T09:16:15.315Z,39.80
2022-11-28T09:19:16.920Z,38.70
2022-11-28T09:22:18.506Z,40.92
2022-11-28T09:25:20.103Z,46.85
2022-11-28T09:28:21.926Z,46.25
2022-11-28T09:31:23.626Z,60.70
2022-11-28T09:34:25.269Z,53.97
2022-11-28T09:37:29.560Z,46.25
2022-11-28T09:40:40.461Z,48.15
2022-11-28T09:43:45.380Z,70.05
2022-11-28T09:46:50.222Z,46.90
2022-11-28T09:50:10.607Z,48.00
2022-11-28T09:53:24.570Z,45.28
2022-11-28T09:56:26.761Z,46.00
2022-11-28T09:59:30.637Z,41.65
2022-11-28T10:02:44.883Z,70.62
2022-11-28T10:06:00.103Z,53.70
2022-11-28T10:09:11.293Z,47.22
2022-11-28T10:12:12.788Z,70.80
2022-11-28T10:15:20.108Z,52.92
2022-11-28T10:18:38.599Z,48.28
2022-11-28T10:21:57.869Z,39.20
2022-11-28T10:25:06.842Z,45.53
2022-11-28T10:28:17.514Z,54.15
2022-11-28T10:31:21.241Z,74.62
2022-11-28T10:34:43.824Z,104.22
2022-11-28T10:37:45.521Z,108.07
2022-11-28T10:40:54.182Z,95.50
2022-11-28T10:44:21.159Z,95.35
2022-11-28T10:47:32.278Z,49.33
2022-11-28T10:50:46.478Z,53.40
2022-11-28T10:53:58.013Z,64.20
2022-11-28T10:57:05.758Z,83.03
2022-11-28T11:00:12.228Z,82.00
2022-11-28T11:03:17.443Z,57.47
2022-11-28T11:06:19.015Z,92.47
2022-11-28T11:09:20.550Z,69.30
2022-11-28T11:12:30.611Z,67.22
2022-11-28T11:15:32.744Z,66.62
2022-11-28T11:18:38.069Z,71.15
2022-11-28T11:21:39.635Z,135.57
2022-11-28T11:24:41.170Z,102.07
2022-11-28T11:27:58.075Z,70.93
2022-11-28T11:31:02.542Z,85.03
2022-11-28T11:34:07.516Z,75.12
2022-11-28T11:37:20.304Z,81.72
2022-11-28T11:40:29.107Z,69.28
2022-11-28T11:43:33.515Z,190.15
2022-11-28T11:46:50.165Z,91.87
2022-11-28T11:50:03.642Z,80.53
2022-11-28T11:53:11.277Z,121.78
2022-11-28T11:56:14.105Z,91.22
2022-11-28T11:59:21.600Z,113.37
2022-11-28T12:09:43.861Z,83.00
2022-11-28T12:12:45.665Z,78.15
2022-11-28T12:16:01.849Z,55.15
2022-11-28T12:19:36.445Z,83.78
2022-11-28T12:22:56.491Z,72.80
2022-11-28T12:26:00.796Z,71.45
2022-11-28T12:29:21.909Z,71.68
2022-11-28T12:32:38.631Z,51.88
2022-11-28T12:35:43.755Z,90.50
2022-11-28T12:39:11.311Z,67.57
2022-11-28T12:42:22.037Z,71.93
2022-11-28T12:45:40.234Z,75.20
2022-11-28T12:48:53.445Z,98.90
2022-11-28T12:52:17.877Z,89.28
2022-11-28T12:55:36.909Z,50.58
2022-11-28T12:59:19.121Z,55.95
2022-11-28T13:02:45.602Z,73.57
2022-11-28T13:05:58.109Z,48.53
2022-11-28T13:09:24.551Z,51.22
2022-11-28T13:12:43.032Z,43.13
2022-11-28T13:16:15.314Z,54.53
2022-11-28T13:19:38.310Z,66.07
2022-11-28T13:22:52.985Z,43.50
2022-11-28T13:26:07.945Z,47.42
2022-11-28T13:29:21.683Z,42.62
2022-11-28T13:32:29.124Z,58.10
2022-11-28T13:35:31.564Z,54.45
2022-11-28T13:39:11.183Z,51.28
2022-11-28T13:49:29.618Z,60.28
2022-11-28T13:52:32.772Z,46.92
2022-11-28T13:55:46.744Z,49.47
2022-11-28T13:59:00.850Z,46.05
2022-11-28T14:02:16.840Z,52.55
2022-11-28T14:05:35.518Z,53.60
2022-11-28T14:08:41.323Z,55.25
2022-11-28T14:11:56.908Z,50.08
2022-11-28T14:15:23.866Z,48.95
2022-11-28T14:18:56.429Z,49.10
2022-11-28T14:22:04.707Z,52.45
2022-11-28T14:25:23.445Z,63.90
2022-11-28T14:28:36.971Z,54.60
2022-11-28T14:31:39.900Z,46.00
2022-11-28T14:34:46.345Z,66.32
2022-11-28T14:37:55.209Z,63.38
2022-11-28T14:40:59.785Z,62.05
2022-11-28T14:44:39.193Z,87.82
2022-11-28T14:47:43.032Z,87.78
2022-11-28T14:50:49.410Z,72.00
2022-11-28T14:53:51.948Z,80.68
2022-11-28T14:56:59.520Z,68.78
2022-11-28T15:00:17.490Z,57.03
2022-11-28T15:03:45.496Z,59.80
2022-11-28T15:06:50.229Z,68.70
2022-11-28T15:10:22.624Z,60.35
2022-11-28T15:13:48.828Z,52.83
2022-11-28T15:16:54.798Z,47.33
2022-11-28T15:19:59.007Z,59.67
2022-11-28T15:23:00.654Z,50.35
2022-11-28T15:26:03.573Z,49.25
2022-11-28T15:29:28.007Z,53.03
2022-11-28T15:32:31.545Z,48.65
2022-11-28T15:35:33.116Z,50.05
2022-11-28T15:38:36.638Z,57.25
2022-11-28T15:41:38.205Z,53.95
2022-11-28T15:44:43.172Z,41.35
2022-11-28T15:47:46.701Z,42.60
2022-11-28T15:50:51.472Z,44.58
2022-11-28T15:53:53.228Z,45.22
2022-11-28T15:56:58.464Z,52.25
2022-11-28T16:00:01.515Z,60.40
2022-11-28T16:03:04.503Z,53.33
2022-11-28T16:06:06.457Z,65.28
2022-11-28T16:09:23.859Z,57.42
2022-11-28T16:12:26.673Z,48.22
2022-11-28T16:15:29.011Z,47.13
2022-11-28T16:18:31.396Z,46.40
2022-11-28T16:21:37.703Z,51.55
2022-11-28T16:24:47.798Z,50.42
2022-11-28T16:27:53.160Z,58.95
2022-11-28T16:30:57.189Z,54.72
2022-11-28T16:33:59.876Z,52.60
2022-11-28T16:37:01.508Z,47.60
2022-11-28T16:40:13.760Z,49.08
2022-11-28T16:43:35.884Z,55.20
2022-11-28T16:46:59.976Z,50.35
2022-11-28T16:50:16.083Z,71.62
2022-11-28T16:53:57.659Z,58.22
2022-11-28T16:57:10.766Z,59.13
2022-11-28T17:00:13.153Z,57.75
2022-11-28T17:03:41.784Z,50.75
2022-11-28T17:09:46.960Z,58.60
2022-11-28T17:12:48.985Z,63.63
2022-11-28T17:15:50.785Z,59.28
2022-11-28T17:18:52.965Z,49.08
2022-11-28T17:21:58.184Z,57.50
2022-11-28T17:25:01.719Z,65.90
2022-11-28T17:28:03.870Z,57.47
2022-11-28T17:31:06.505Z,55.50
2022-11-28T17:34:15.724Z,51.17
2022-11-28T17:37:17.753Z,58.50
2022-11-28T17:40:36.480Z,60.22
2022-11-28T17:43:39.318Z,60.33
2022-11-28T17:46:41.525Z,58.20
2022-11-28T17:49:46.398Z,58.53
2022-11-28T17:52:48.881Z,58.15
2022-11-28T17:55:52.566Z,65.53
2022-11-28T17:58:55.126Z,68.97
2022-11-28T18:01:56.805Z,66.37
2022-11-28T18:05:01.514Z,57.10
2022-11-28T18:08:03.807Z,54.63
2022-11-28T18:11:08.311Z,52.45
2022-11-28T18:14:11.126Z,49.78
2022-11-28T18:17:13.084Z,56.05
2022-11-28T18:20:15.081Z,59.88
2022-11-28T18:23:17.099Z,60.63
2022-11-28T18:26:23.296Z,55.75
2022-11-28T18:29:25.412Z,47.83
2022-11-28T18:32:27.414Z,48.58
2022-11-28T18:35:30.485Z,56.45
2022-11-28T18:38:32.486Z,52.25
2022-11-28T18:41:34.893Z,50.30
2022-11-28T18:44:36.954Z,51.00
2022-11-28T18:47:39.131Z,51.55
2022-11-28T18:50:41.053Z,59.58
2022-11-28T18:53:43.180Z,61.45
2022-11-28T18:56:45.080Z,50.88
2022-11-28T18:59:54.404Z,57.15
2022-11-28T19:02:57.256Z,58.70
2022-11-28T19:05:59.658Z,58.25
2022-11-28T19:09:04.054Z,69.72
2022-11-28T19:12:06.892Z,62.40
2022-11-28T19:15:11.189Z,69.68
2022-11-28T19:18:14.127Z,64.95
2022-11-28T19:21:19.351Z,82.43
2022-11-28T19:24:21.418Z,96.20
2022-11-28T19:27:31.027Z,94.07
2022-11-28T19:30:33.144Z,85.50
2022-11-28T19:33:35.527Z,73.05
2022-11-28T19:36:41.425Z,75.50
2022-11-28T19:39:43.978Z,72.78
2022-11-28T19:42:46.356Z,96.82
2022-11-28T19:45:56.093Z,87.43
2022-11-28T19:48:58.722Z,50.42
2022-11-28T19:52:00.403Z,61.88
2022-11-28T19:55:02.451Z,61.40
2022-11-28T19:58:04.575Z,65.78
2022-11-28T20:01:13.123Z,72.65
2022-11-28T20:04:15.296Z,70.45
2022-11-28T20:07:17.651Z,75.85
2022-11-28T20:10:19.783Z,78.50
2022-11-28T20:13:22.026Z,69.90
2022-11-28T20:16:24.388Z,62.15
2022-11-28T20:19:26.660Z,61.53
2022-11-28T20:22:28.892Z,64.22
2022-11-28T20:25:30.979Z,54.75
2022-11-28T20:28:35.075Z,53.47
2022-11-28T20:31:42.486Z,54.90
2022-11-28T20:34:44.623Z,55.03
2022-11-28T20:37:47.265Z,53.90
2022-11-28T20:40:49.316Z,117.18
2022-11-28T20:43:51.681Z,81.00
2022-11-28T20:46:53.701Z,112.85
2022-11-28T20:49:56.010Z,66.22
2022-11-28T20:52:58.029Z,149.80
2022-11-28T20:56:10.930Z,114.05
2022-11-28T20:59:16.174Z,135.80
2022-11-28T21:02:18.075Z,107.10
2022-11-28T21:05:20.256Z,119.87
2022-11-28T21:08:22.000Z,73.32
2022-11-28T21:11:50.516Z,123.18
2022-11-28T21:14:47.583Z,106.75
2022-11-28T21:17:49.912Z,146.82
2022-11-28T21:20:52.954Z,121.47
2022-11-28T21:24:03.326Z,77.62
2022-11-28T21:27:05.336Z,149.52
2022-11-28T21:30:07.850Z,86.07
2022-11-28T21:33:11.416Z,169.55
2022-11-28T21:36:13.382Z,128.87
2022-11-28T21:39:17.387Z,108.00
2022-11-28T21:42:20.702Z,141.05
2022-11-28T21:45:23.975Z,127.85
2022-11-28T21:48:25.526Z,128.70
2022-11-28T21:51:28.773Z,107.18
2022-11-28T21:54:30.343Z,203.57
2022-11-28T21:57:31.904Z,116.00
2022-11-28T22:00:52.576Z,143.20
2022-11-28T22:04:00.646Z,92.20
2022-11-28T22:07:03.915Z,133.37
2022-11-28T22:10:06.327Z,123.15
2022-11-28T22:13:07.976Z,93.75
2022-11-28T22:16:20.476Z,97.85
2022-11-28T22:19:22.184Z,89.93
2022-11-28T22:22:27.320Z,146.43
2022-11-28T22:25:28.971Z,74.85
2022-11-28T22:28:32.132Z,145.75
2022-11-28T22:31:34.016Z,94.75
2022-11-28T22:34:39.667Z,136.55
2022-11-28T22:37:41.692Z,154.20
2022-11-28T22:40:43.386Z,136.25
2022-11-28T22:43:46.152Z,124.47
2022-11-28T22:46:47.750Z,109.90
2022-11-28T22:49:49.300Z,85.22
2022-11-28T22:52:50.877Z,103.80
2022-11-28T22:55:52.442Z,110.22
2022-11-28T22:58:54.011Z,69.65
2022-11-28T23:01:55.662Z,94.40
2022-11-28T23:04:57.735Z,87.57
2022-11-28T23:07:59.372Z,110.68
2022-11-28T23:11:08.507Z,93.03
2022-11-28T23:14:12.945Z,106.70
2022-11-28T23:17:14.510Z,56.58
2022-11-28T23:20:16.155Z,112.55
2022-11-28T23:23:17.733Z,101.43
2022-11-28T23:26:23.178Z,93.37
2022-11-28T23:29:24.796Z,110.57
2022-11-28T23:32:27.507Z,125.50
2022-11-28T23:35:29.043Z,67.45
2022-11-28T23:38:30.704Z,100.70
2022-11-28T23:41:32.930Z,50.22
2022-11-28T23:44:34.527Z,78.82
2022-11-28T23:47:36.093Z,89.10
2022-11-28T23:50:37.659Z,48.97
2022-11-28T23:53:40.313Z,78.72
2022-11-28T23:56:42.331Z,66.40
2022-11-28T23:59:43.911Z,47.72
